الصفحة الرئيسية
METAR-TAF:

METAR-TAF

مطار :

Saint Thomas, جزر فيرجين الأمريكية

دائرة عرض: 18-20N, خط طول: 064-59W, ارتفاع: 7 متر

مراقبة الطقس الحالي

تاريخ ووقت الإصدار 24 دقيقة قبل الساعة 14:53UTC
ريح 14 عقدة من الجنوب الشرقي
درجة الحرارة 30°درجة مئوية
الرطوبة 70%
ضغط 1016 hPa
الرؤية: 16.1 كم
غيوم متفرقة على ارتفاع 2800 قدم

METAR: TIST 251453Z 13014KT 10SM SCT028 30/24 A3001 RMK AO2 SLP161 T03000239 50005 $

زمن: 11:17 (15:17 UTC)

توقعات

تاريخ ووقت الإصدار 3ساعات و 57 دقيقة قبل الساعة 11:20UTC
التوقعات صالحة من25 الساعة 12 UTC إلى 26 الساعة 12 UTC
ريح 9 عقدة من الشرق
الرؤية: 10 كم
غيوم متفرقة على ارتفاع 4000 قدم
زخات في الجوار
من 25 الساعة 1300 UTC
ريح 13 عقدة من الشرق/الجنوب الشرقي
الرؤية: 10 كم
غيوم متفرقة على ارتفاع 2500 قدم
غيوم متفرقة على ارتفاع 5000 قدم
زخات في الجوار
من 25 الساعة 1900 UTC
ريح 9 عقدة من الشرق
الرؤية: 10 كم
غيوم متفرقة على ارتفاع 3000 قدم
غيوم متفرقة على ارتفاع 6000 قدم
زخات في الجوار,

TAF: TIST 251120Z 2512/2612 09009KT P6SM VCSH SCT040 FM251300 12013KT P6SM VCSH SCT025 SCT050 FM251900 09009KT P6SM VCSH SCT030 SCT060

أرصاد الطقس والتوقعات من أكثر من 4000 مطار (تقارير الطقس للمطار METAR والتنبؤ بالطقس بالمطارTAF).

المحطات المتاحة هي النقط الصفراء والحمراء على الخريطة.

حرك المؤشر فوق النقطة لمعرفة اسم المحطة.

ثم انقر لمعرفة أرصاد وتوقعات الطقس.

لتغيير الخارطة: اضغط على الأزرار الخضراء مع رمز الصليب الأسود للتكبير. على الزر الأخضر مع شرطة للتصغير، أو على الأسهم الخضراء للخرائط المجاورة.


METAR-TAF: